Time;durP1;ratioP1;P1;durP2;ratioP2;P2;SDS_P1;SDS_P2;PMS_P1;PMS_P2;Temp;Humidity;BMP_temperature;BMP_pressure;BME280_temperature;BME280_humidity;BME280_pressure;Samples;Min_cycle;Max_cycle;Signal;HPM_P1;HPM_P2
2024/01/10 00:02:20;;;;;;;7.30;2.60;;;0.90;42.90;;;;;;5093364;28;20372;-72
2024/01/10 00:04:46;;;;;;;7.33;3.03;;;0.90;43.00;;;;;;5093847;28;20047;-72
2024/01/10 00:07:12;;;;;;;7.10;2.77;;;0.90;43.10;;;;;;5110718;28;20068;-73
2024/01/10 00:09:37;;;;;;;7.90;2.67;;;0.90;43.20;;;;;;5093981;28;20032;-71
2024/01/10 00:12:03;;;;;;;6.67;2.53;;;0.90;43.20;;;;;;5093907;28;20036;-72
2024/01/10 00:14:29;;;;;;;7.87;2.80;;;0.90;43.30;;;;;;5093174;28;20032;-72
2024/01/10 00:16:55;;;;;;;7.17;2.77;;;0.90;43.40;;;;;;5094675;28;20028;-72
2024/01/10 00:19:21;;;;;;;8.73;3.37;;;0.80;43.40;;;;;;5092693;28;20023;-72
2024/01/10 00:21:46;;;;;;;6.40;3.03;;;0.80;43.50;;;;;;5094706;28;20099;-71
2024/01/10 00:24:15;;;;;;;7.27;3.27;;;0.90;43.70;;;;;;5098887;28;20062;-71
2024/01/10 00:26:40;;;;;;;6.23;2.77;;;0.90;43.70;;;;;;5094739;28;20038;-72
2024/01/10 00:29:06;;;;;;;6.40;2.90;;;0.80;43.80;;;;;;5092607;28;20044;-71
2024/01/10 00:31:32;;;;;;;8.17;2.80;;;0.80;43.90;;;;;;5094237;28;20067;-72
2024/01/10 00:33:58;;;;;;;6.07;2.53;;;0.80;44.00;;;;;;5101402;28;20024;-72
2024/01/10 00:36:23;;;;;;;6.93;2.73;;;0.80;44.10;;;;;;5094313;28;20433;-72
2024/01/10 00:38:49;;;;;;;8.13;3.40;;;0.80;44.10;;;;;;5093480;28;20030;-72
2024/01/10 00:41:15;;;;;;;7.30;2.80;;;0.80;44.20;;;;;;5092463;28;20028;-71
2024/01/10 00:43:41;;;;;;;6.07;2.47;;;0.70;44.30;;;;;;5080679;28;20074;-71
2024/01/10 00:46:07;;;;;;;6.10;2.67;;;0.70;44.40;;;;;;5093515;28;20024;-72
2024/01/10 00:48:33;;;;;;;6.83;2.97;;;0.70;44.50;;;;;;5093515;28;20363;-72
2024/01/10 00:50:59;;;;;;;7.80;3.20;;;0.70;44.60;;;;;;5093032;28;20039;-72
2024/01/10 00:53:25;;;;;;;7.57;2.77;;;0.70;44.60;;;;;;5092709;28;20032;-72
2024/01/10 00:55:51;;;;;;;8.23;3.03;;;0.70;44.70;;;;;;5092662;28;20456;-72
2024/01/10 00:58:17;;;;;;;7.57;3.50;;;0.70;44.80;;;;;;5103670;28;20024;-72
2024/01/10 01:00:43;;;;;;;6.33;2.50;;;0.60;44.90;;;;;;5093054;28;20039;-72
2024/01/10 01:03:09;;;;;;;6.37;2.60;;;0.60;44.90;;;;;;5093315;28;20032;-72
2024/01/10 01:05:34;;;;;;;8.53;3.20;;;0.60;44.90;;;;;;5093279;28;20051;-72
2024/01/10 01:08:00;;;;;;;7.10;2.70;;;0.70;45.00;;;;;;5097768;28;20028;-71
2024/01/10 01:10:26;;;;;;;7.57;2.70;;;0.70;45.00;;;;;;5090678;28;20035;-72
2024/01/10 01:12:51;;;;;;;9.03;3.13;;;0.70;45.00;;;;;;5092945;28;20032;-71
2024/01/10 01:15:17;;;;;;;8.17;2.67;;;0.60;45.00;;;;;;5091790;28;20035;-71
2024/01/10 01:17:43;;;;;;;6.83;3.47;;;0.70;45.10;;;;;;5093477;28;20119;-71
2024/01/10 01:20:09;;;;;;;6.93;3.00;;;0.70;45.10;;;;;;5094400;28;20046;-71
2024/01/10 01:22:35;;;;;;;8.80;3.37;;;0.70;45.20;;;;;;5095767;28;20348;-71
2024/01/10 01:25:00;;;;;;;7.50;3.00;;;0.70;45.20;;;;;;5097224;28;20078;-71
2024/01/10 01:27:26;;;;;;;7.33;2.57;;;0.70;45.20;;;;;;5094994;28;20032;-72
2024/01/10 01:29:52;;;;;;;7.93;3.27;;;0.70;45.20;;;;;;5096024;28;20035;-71
2024/01/10 01:32:18;;;;;;;7.10;2.77;;;0.70;45.30;;;;;;5095428;28;20027;-71
2024/01/10 01:34:43;;;;;;;8.07;2.97;;;0.60;45.30;;;;;;5097060;28;20093;-71
2024/01/10 01:37:09;;;;;;;7.93;3.00;;;0.60;45.30;;;;;;5095063;28;20107;-71
2024/01/10 01:39:35;;;;;;;7.43;2.87;;;0.60;45.30;;;;;;5097708;28;20294;-71
2024/01/10 01:42:00;;;;;;;5.77;2.50;;;0.70;45.40;;;;;;5098336;28;20024;-71
2024/01/10 01:44:26;;;;;;;6.73;3.30;;;0.60;45.40;;;;;;5082824;28;20360;-71
2024/01/10 01:46:52;;;;;;;7.27;3.00;;;0.60;45.50;;;;;;5111001;28;20449;-71
2024/01/10 01:49:18;;;;;;;7.97;2.80;;;0.60;45.40;;;;;;5095257;28;20398;-71
2024/01/10 01:51:44;;;;;;;6.80;3.20;;;0.60;45.50;;;;;;5095568;28;20039;-71
2024/01/10 01:54:11;;;;;;;7.03;3.10;;;0.60;45.60;;;;;;5095067;28;20035;-71
2024/01/10 01:56:38;;;;;;;6.87;2.80;;;0.60;45.70;;;;;;5095103;28;20032;-72
2024/01/10 01:59:08;;;;;;;6.80;2.80;;;0.60;45.70;;;;;;5095955;28;20038;-72
2024/01/10 02:01:34;;;;;;;6.90;2.97;;;0.50;45.80;;;;;;5095729;28;20043;-71
2024/01/10 02:04:03;;;;;;;7.90;2.80;;;0.60;45.90;;;;;;5088940;28;20028;-71
2024/01/10 02:06:30;;;;;;;8.17;2.87;;;0.50;45.90;;;;;;5093699;28;20036;-71
2024/01/10 02:08:57;;;;;;;9.33;3.23;;;0.50;45.90;;;;;;5099059;28;20072;-71
2024/01/10 02:11:24;;;;;;;7.80;3.17;;;0.50;45.90;;;;;;5092977;28;20047;-71
2024/01/10 02:13:51;;;;;;;7.33;3.07;;;0.50;45.90;;;;;;5078287;28;20035;-71
2024/01/10 02:16:18;;;;;;;7.40;2.90;;;0.50;46.00;;;;;;5094198;28;20025;-71
2024/01/10 02:18:44;;;;;;;7.30;2.67;;;0.50;45.90;;;;;;5094182;28;20092;-72
2024/01/10 02:21:09;;;;;;;5.80;2.70;;;0.50;45.90;;;;;;5095243;28;20027;-71
2024/01/10 02:23:35;;;;;;;9.20;3.20;;;0.50;45.90;;;;;;5094493;28;20180;-71
2024/01/10 02:26:01;;;;;;;7.77;3.43;;;0.50;45.90;;;;;;5102485;28;20177;-72
2024/01/10 02:28:27;;;;;;;7.97;2.83;;;0.50;46.00;;;;;;5093907;28;20453;-71
2024/01/10 02:30:54;;;;;;;8.73;3.57;;;0.40;46.50;;;;;;5111913;28;20040;-71
2024/01/10 02:33:20;;;;;;;7.57;3.33;;;0.40;46.60;;;;;;5084975;28;20058;-71
2024/01/10 02:35:46;;;;;;;7.37;3.03;;;0.40;46.60;;;;;;5107786;28;20459;-71
2024/01/10 02:38:11;;;;;;;6.80;2.80;;;0.40;46.10;;;;;;5094128;28;20039;-72
2024/01/10 02:40:37;;;;;;;7.17;3.00;;;0.40;46.10;;;;;;5094678;28;20032;-71
2024/01/10 02:43:03;;;;;;;7.60;2.83;;;0.40;46.10;;;;;;5092058;28;20028;-71
2024/01/10 02:45:29;;;;;;;7.87;2.97;;;0.40;46.20;;;;;;5099453;28;20045;-71
2024/01/10 02:47:55;;;;;;;7.33;3.47;;;0.40;46.20;;;;;;5093948;28;20024;-71
2024/01/10 02:50:20;;;;;;;7.00;3.10;;;0.40;46.30;;;;;;5094026;28;20138;-71
2024/01/10 02:52:46;;;;;;;6.90;3.00;;;0.40;46.40;;;;;;5094991;28;20115;-71
2024/01/10 02:55:12;;;;;;;6.67;3.03;;;0.40;46.40;;;;;;5074720;28;20141;-71
2024/01/10 02:57:37;;;;;;;7.67;2.97;;;0.40;46.50;;;;;;5101729;28;20028;-72
2024/01/10 03:00:05;;;;;;;7.87;3.10;;;0.40;46.50;;;;;;5094759;28;20052;-71
2024/01/10 03:02:31;;;;;;;7.00;3.07;;;0.40;46.60;;;;;;5108317;28;20507;-71
2024/01/10 03:04:57;;;;;;;6.83;2.70;;;0.40;46.70;;;;;;5088062;28;20115;-71
2024/01/10 03:07:24;;;;;;;6.63;2.93;;;0.30;46.70;;;;;;5084601;28;20017;-71
2024/01/10 03:09:50;;;;;;;7.43;3.40;;;0.30;46.80;;;;;;5098887;28;20016;-71
2024/01/10 03:12:16;;;;;;;7.33;3.10;;;0.30;46.90;;;;;;5108836;28;20123;-71
2024/01/10 03:14:42;;;;;;;6.83;2.90;;;0.30;46.90;;;;;;5097228;28;20035;-71
2024/01/10 03:17:07;;;;;;;7.73;3.13;;;0.30;47.00;;;;;;5095462;28;20027;-71
2024/01/10 03:19:33;;;;;;;7.10;2.90;;;0.20;47.00;;;;;;5108020;28;20111;-71
2024/01/10 03:21:59;;;;;;;6.87;2.70;;;0.20;47.00;;;;;;5093074;28;20034;-71
2024/01/10 03:24:26;;;;;;;7.80;3.20;;;0.20;47.10;;;;;;5094857;28;20042;-71
2024/01/10 03:26:52;;;;;;;9.50;3.40;;;0.20;47.10;;;;;;5094281;28;20330;-71
2024/01/10 03:29:18;;;;;;;8.10;3.17;;;0.20;47.10;;;;;;5093201;28;20058;-71
2024/01/10 03:31:44;;;;;;;6.60;2.87;;;0.20;47.20;;;;;;5094701;28;20082;-71
2024/01/10 03:34:10;;;;;;;8.50;3.30;;;0.30;47.30;;;;;;5102820;28;20027;-71
2024/01/10 03:36:35;;;;;;;7.23;2.90;;;0.20;47.30;;;;;;5108418;28;20039;-71
2024/01/10 03:39:01;;;;;;;6.77;3.10;;;0.20;47.30;;;;;;5101145;28;20031;-72
2024/01/10 03:41:27;;;;;;;8.03;3.50;;;0.20;47.30;;;;;;5093949;28;20085;-71
2024/01/10 03:43:53;;;;;;;8.20;3.23;;;0.20;47.40;;;;;;5086431;28;20043;-71
2024/01/10 03:46:19;;;;;;;7.40;3.57;;;0.20;47.50;;;;;;5081259;28;20051;-71
2024/01/10 03:48:48;;;;;;;7.90;3.33;;;0.20;47.50;;;;;;5094222;28;20469;-71
2024/01/10 03:51:17;;;;;;;7.47;3.70;;;0.10;47.50;;;;;;5093836;28;20036;-71
2024/01/10 03:53:46;;;;;;;7.60;2.83;;;0.20;47.60;;;;;;5092313;28;20041;-71
2024/01/10 03:56:12;;;;;;;8.50;3.63;;;0.10;47.50;;;;;;5093466;28;20121;-71
2024/01/10 03:58:38;;;;;;;8.20;3.27;;;0.20;47.60;;;;;;5094083;28;20077;-71
2024/01/10 04:01:08;;;;;;;7.63;3.03;;;0.20;47.70;;;;;;5076525;28;20032;-71
2024/01/10 04:03:35;;;;;;;8.13;3.30;;;0.10;47.70;;;;;;5094562;28;20063;-71
2024/01/10 04:06:01;;;;;;;8.17;3.10;;;0.10;47.80;;;;;;5098186;28;20020;-71
2024/01/10 04:08:27;;;;;;;7.50;3.30;;;0.10;47.80;;;;;;5075588;28;20334;-71
2024/01/10 04:10:53;;;;;;;7.63;2.83;;;0.10;47.90;;;;;;5094492;28;20089;-71
2024/01/10 04:13:18;;;;;;;8.17;3.00;;;0.10;47.80;;;;;;5094478;28;20111;-71
2024/01/10 04:15:44;;;;;;;8.00;3.67;;;0.10;47.90;;;;;;5099544;28;20032;-71
2024/01/10 04:18:10;;;;;;;8.83;3.63;;;0.10;47.90;;;;;;5105975;28;20114;-71
2024/01/10 04:20:36;;;;;;;8.67;3.40;;;0.10;48.00;;;;;;5094924;28;20448;-71
2024/01/10 04:23:02;;;;;;;6.73;3.03;;;0.10;48.00;;;;;;5094433;28;20024;-71
2024/01/10 04:25:28;;;;;;;7.83;2.90;;;0.10;48.10;;;;;;5093030;28;20341;-72
2024/01/10 04:27:55;;;;;;;9.40;3.60;;;0.00;48.10;;;;;;5081090;28;20050;-71
2024/01/10 04:30:21;;;;;;;8.33;3.63;;;0.00;48.10;;;;;;5096914;28;20058;-71
2024/01/10 04:32:46;;;;;;;6.97;3.10;;;0.00;48.20;;;;;;5093884;28;20031;-71
2024/01/10 04:35:12;;;;;;;8.73;3.23;;;0.00;48.20;;;;;;5093695;28;20440;-71
2024/01/10 04:37:38;;;;;;;10.43;3.70;;;0.00;48.30;;;;;;5094152;28;20047;-71
2024/01/10 04:40:05;;;;;;;8.97;3.70;;;-0.10;48.30;;;;;;5096305;28;20027;-71
2024/01/10 04:42:31;;;;;;;8.47;3.20;;;0.00;48.30;;;;;;5104276;28;20360;-71
2024/01/10 04:44:57;;;;;;;7.80;3.10;;;0.00;48.40;;;;;;5094723;28;20035;-71
2024/01/10 04:47:22;;;;;;;8.53;3.20;;;0.00;48.40;;;;;;5092128;28;20053;-71
2024/01/10 04:49:48;;;;;;;8.83;3.30;;;0.00;48.40;;;;;;5090746;28;20123;-71
2024/01/10 04:52:14;;;;;;;8.40;3.50;;;0.00;48.50;;;;;;5092835;28;20047;-71
2024/01/10 04:54:40;;;;;;;8.37;3.80;;;-0.10;48.50;;;;;;5074392;28;20367;-71
2024/01/10 04:57:05;;;;;;;8.17;3.17;;;-0.10;48.60;;;;;;5095816;28;20043;-71
2024/01/10 04:59:31;;;;;;;7.67;3.03;;;-0.10;48.60;;;;;;5096269;28;20024;-71
2024/01/10 05:01:57;;;;;;;9.20;3.23;;;-0.10;48.70;;;;;;5102649;27;20028;-71
2024/01/10 05:04:23;;;;;;;8.20;3.43;;;-0.10;48.70;;;;;;5077033;28;20429;-71
2024/01/10 05:06:49;;;;;;;9.57;3.47;;;-0.10;48.80;;;;;;5097442;28;20063;-71
2024/01/10 05:09:14;;;;;;;8.73;3.80;;;-0.10;48.80;;;;;;5095652;28;20433;-71
2024/01/10 05:11:40;;;;;;;10.40;3.87;;;-0.10;48.80;;;;;;5096204;28;20118;-71
2024/01/10 05:14:06;;;;;;;8.10;3.40;;;-0.10;48.90;;;;;;5101851;28;20107;-71
2024/01/10 05:16:32;;;;;;;9.27;4.10;;;-0.10;49.00;;;;;;5096029;28;20030;-71
2024/01/10 05:19:03;;;;;;;8.93;4.17;;;-0.20;49.00;;;;;;5095692;28;20024;-71
2024/01/10 05:21:30;;;;;;;9.30;4.17;;;-0.20;49.20;;;;;;5094921;28;20028;-71
2024/01/10 05:23:56;;;;;;;8.33;3.50;;;-0.20;49.20;;;;;;5095754;28;20093;-71
2024/01/10 05:26:22;;;;;;;8.70;3.93;;;-0.20;49.20;;;;;;5095822;28;20028;-71
2024/01/10 05:28:47;;;;;;;8.90;3.77;;;-0.20;49.20;;;;;;5094842;28;20548;-71
2024/01/10 05:31:13;;;;;;;9.37;4.10;;;-0.30;49.20;;;;;;5097155;28;20027;-71
2024/01/10 05:33:39;;;;;;;8.20;3.70;;;-0.30;49.30;;;;;;5095963;28;20460;-71
2024/01/10 05:36:05;;;;;;;7.67;3.57;;;-0.30;49.40;;;;;;5095587;28;20381;-71
2024/01/10 05:38:31;;;;;;;8.53;3.60;;;-0.20;49.40;;;;;;5098573;28;20043;-71
2024/01/10 05:40:56;;;;;;;7.77;3.47;;;-0.20;49.40;;;;;;5095444;28;20020;-71
2024/01/10 05:43:22;;;;;;;7.43;3.20;;;-0.20;49.40;;;;;;5094101;28;20024;-71
2024/01/10 05:45:49;;;;;;;9.03;3.87;;;-0.20;49.50;;;;;;5095912;28;20177;-71
2024/01/10 05:48:17;;;;;;;9.70;3.83;;;-0.20;49.50;;;;;;5094654;28;20504;-71
2024/01/10 05:50:42;;;;;;;8.27;4.30;;;-0.30;49.60;;;;;;5095355;28;20141;-71
2024/01/10 05:53:10;;;;;;;9.33;4.10;;;-0.30;49.80;;;;;;5096973;28;20032;-71
2024/01/10 05:55:36;;;;;;;8.47;3.17;;;-0.30;49.60;;;;;;5095270;28;20042;-71
2024/01/10 05:58:02;;;;;;;9.10;3.87;;;-0.30;49.60;;;;;;5095500;28;20092;-71
2024/01/10 06:00:28;;;;;;;8.60;3.63;;;-0.30;49.70;;;;;;5096103;28;20407;-71
2024/01/10 06:02:54;;;;;;;8.90;4.03;;;-0.30;49.70;;;;;;5095388;28;20020;-71
2024/01/10 06:05:19;;;;;;;8.40;3.70;;;-0.30;50.30;;;;;;5095467;28;20012;-72
2024/01/10 06:07:45;;;;;;;10.53;4.10;;;-0.20;49.70;;;;;;5094319;28;20032;-71
2024/01/10 06:10:11;;;;;;;10.13;4.03;;;-0.30;49.60;;;;;;5103444;28;20064;-71
2024/01/10 06:12:38;;;;;;;7.77;3.73;;;-0.20;49.70;;;;;;5097628;28;20032;-76
2024/01/10 06:15:04;;;;;;;10.63;4.47;;;-0.20;49.80;;;;;;5094717;28;20016;-72
2024/01/10 06:17:31;;;;;;;11.33;4.23;;;-0.20;49.80;;;;;;5103976;28;20027;-71
2024/01/10 06:19:59;;;;;;;9.73;4.77;;;-0.30;49.80;;;;;;5112922;28;20023;-72
2024/01/10 06:22:26;;;;;;;10.23;4.00;;;-0.20;49.90;;;;;;5094843;28;20032;-72
2024/01/10 06:24:52;;;;;;;11.00;4.10;;;-0.20;49.80;;;;;;5094813;28;20388;-72
2024/01/10 06:27:20;;;;;;;10.33;4.00;;;-0.20;49.80;;;;;;5101652;28;20023;-72
2024/01/10 06:29:46;;;;;;;10.60;4.43;;;-0.30;49.80;;;;;;5113665;28;20467;-72
2024/01/10 06:32:12;;;;;;;10.37;3.90;;;-0.30;49.90;;;;;;5095720;28;20025;-72
2024/01/10 06:34:37;;;;;;;9.03;3.93;;;-0.30;49.90;;;;;;5095105;28;20031;-73
2024/01/10 06:37:03;;;;;;;9.37;4.00;;;-0.30;49.90;;;;;;5094625;28;20121;-72
2024/01/10 06:39:29;;;;;;;8.73;4.43;;;-0.30;49.90;;;;;;5098682;28;20015;-74
2024/01/10 06:41:55;;;;;;;9.67;5.07;;;-0.30;49.90;;;;;;5107500;28;20501;-73
2024/01/10 06:44:21;;;;;;;10.67;4.57;;;-0.30;49.90;;;;;;5094666;28;20032;-73
2024/01/10 06:46:46;;;;;;;10.40;4.23;;;-0.30;49.90;;;;;;5094379;28;20035;-73
2024/01/10 06:49:12;;;;;;;11.73;4.57;;;-0.30;50.50;;;;;;5095475;28;20444;-73
2024/01/10 06:51:38;;;;;;;9.90;4.67;;;-0.30;50.00;;;;;;5102461;28;20078;-73
2024/01/10 06:54:05;;;;;;;9.27;3.93;;;-0.40;50.00;;;;;;5095168;28;20042;-73
2024/01/10 06:56:33;;;;;;;10.90;5.00;;;-0.30;50.00;;;;;;5094334;28;21359;-73
2024/01/10 06:59:00;;;;;;;8.87;4.33;;;-0.40;50.00;;;;;;5093612;28;20024;-73
2024/01/10 07:01:27;;;;;;;9.73;4.43;;;-0.40;50.00;;;;;;5094122;28;20028;-73
2024/01/10 07:03:54;;;;;;;10.67;4.77;;;-0.40;50.00;;;;;;5093635;28;20032;-73
2024/01/10 07:06:20;;;;;;;10.70;4.47;;;-0.40;50.00;;;;;;5099265;28;20360;-73
2024/01/10 07:08:49;;;;;;;10.57;4.77;;;-0.40;50.00;;;;;;5098382;28;20040;-73
2024/01/10 07:11:19;;;;;;;12.33;5.00;;;-0.40;50.00;;;;;;5092653;28;20031;-73
2024/01/10 07:13:45;;;;;;;12.00;5.53;;;-0.40;50.00;;;;;;5091364;28;20035;-73
2024/01/10 07:16:11;;;;;;;9.00;4.47;;;-0.40;50.00;;;;;;5094437;28;20012;-73
2024/01/10 07:18:37;;;;;;;11.43;5.13;;;-0.40;50.00;;;;;;5094338;28;20028;-73
2024/01/10 07:21:03;;;;;;;11.17;4.80;;;-0.40;50.00;;;;;;5093586;28;20053;-73
2024/01/10 07:23:29;;;;;;;9.97;4.60;;;-0.40;50.00;;;;;;5094603;28;20023;-73
2024/01/10 07:25:54;;;;;;;10.77;4.63;;;-0.40;50.00;;;;;;5093427;28;20032;-73
2024/01/10 07:28:20;;;;;;;11.27;5.57;;;-0.40;50.10;;;;;;5089732;28;20031;-73
2024/01/10 07:30:47;;;;;;;11.83;5.10;;;-0.30;50.10;;;;;;5089271;28;20103;-73
2024/01/10 07:33:13;;;;;;;10.80;4.93;;;-0.20;50.00;;;;;;5092963;28;20399;-73
2024/01/10 07:35:38;;;;;;;10.43;5.00;;;-0.20;49.90;;;;;;5095049;28;20032;-72
2024/01/10 07:38:07;;;;;;;10.97;5.03;;;-0.20;49.80;;;;;;5093260;28;20050;-72
2024/01/10 07:40:36;;;;;;;11.33;5.43;;;-0.20;49.80;;;;;;5092657;28;20057;-76
2024/01/10 07:43:02;;;;;;;10.60;5.17;;;-0.30;49.80;;;;;;5097209;28;20028;-75
2024/01/10 07:45:28;;;;;;;11.47;5.00;;;-0.30;49.80;;;;;;5094354;28;20547;-75
2024/01/10 07:47:54;;;;;;;12.80;5.97;;;-0.30;49.80;;;;;;5094670;28;20118;-74
2024/01/10 07:50:20;;;;;;;10.67;5.17;;;-0.30;49.80;;;;;;5096642;28;20035;-75
2024/01/10 07:52:46;;;;;;;12.70;5.50;;;-0.30;49.70;;;;;;5096108;28;20032;-75
2024/01/10 07:55:12;;;;;;;10.10;5.13;;;-0.30;49.70;;;;;;5095129;28;20044;-75
2024/01/10 07:57:38;;;;;;;11.97;5.33;;;-0.30;49.70;;;;;;5094858;28;20051;-75
2024/01/10 08:00:10;;;;;;;11.27;5.23;;;-0.30;49.70;;;;;;5093624;28;20020;-75
2024/01/10 08:02:39;;;;;;;11.77;5.70;;;-0.30;49.70;;;;;;5092985;28;20461;-75
2024/01/10 08:05:09;;;;;;;14.27;5.93;;;-0.30;49.60;;;;;;5102242;28;20075;-75
2024/01/10 08:07:39;;;;;;;10.67;5.43;;;-0.20;49.60;;;;;;5101060;28;20433;-75
2024/01/10 08:10:09;;;;;;;13.23;6.40;;;-0.20;49.60;;;;;;5097804;28;20040;-75
2024/01/10 08:12:36;;;;;;;12.80;6.40;;;-0.20;49.50;;;;;;5087139;28;20031;-75
2024/01/10 08:15:02;;;;;;;11.40;5.60;;;-0.20;49.40;;;;;;5094581;28;20028;-75
2024/01/10 08:17:28;;;;;;;11.27;5.70;;;-0.20;49.40;;;;;;5093608;28;20528;-75
2024/01/10 08:19:53;;;;;;;12.30;6.10;;;-0.20;49.30;;;;;;5094615;28;20028;-75
2024/01/10 08:22:20;;;;;;;11.67;5.90;;;-0.10;49.30;;;;;;5102138;28;20152;-75
2024/01/10 08:24:46;;;;;;;13.13;5.70;;;-0.10;49.20;;;;;;5113803;28;20032;-75
2024/01/10 08:27:12;;;;;;;13.57;6.10;;;-0.10;49.20;;;;;;5106359;28;20448;-75
2024/01/10 08:29:38;;;;;;;12.00;5.70;;;0.00;49.20;;;;;;5093116;28;20044;-76
2024/01/10 08:32:04;;;;;;;13.63;6.43;;;0.00;49.00;;;;;;5102080;28;20028;-75
2024/01/10 08:34:30;;;;;;;13.73;6.93;;;0.00;48.90;;;;;;5099131;28;20035;-75
2024/01/10 08:36:56;;;;;;;15.00;6.80;;;0.10;48.80;;;;;;5097428;28;20024;-75
2024/01/10 08:39:24;;;;;;;14.40;6.03;;;0.20;48.80;;;;;;5073861;28;20067;-75
2024/01/10 08:41:50;;;;;;;15.03;6.73;;;0.30;48.70;;;;;;5096855;28;20051;-75
2024/01/10 08:44:15;;;;;;;12.57;6.47;;;0.40;48.60;;;;;;5098550;28;20071;-76
2024/01/10 08:46:41;;;;;;;15.77;7.27;;;0.40;48.40;;;;;;5097991;28;20024;-75
2024/01/10 08:49:07;;;;;;;15.30;6.30;;;0.50;48.20;;;;;;5099222;28;20024;-78
2024/01/10 08:51:33;;;;;;;17.03;6.27;;;0.60;48.00;;;;;;5094098;28;20036;-76
2024/01/10 08:54:01;;;;;;;12.87;6.57;;;0.70;47.90;;;;;;5114448;28;20446;-75
2024/01/10 08:56:26;;;;;;;16.57;6.87;;;0.80;47.90;;;;;;5096543;28;20028;-76
2024/01/10 08:58:52;;;;;;;13.10;7.03;;;0.80;47.70;;;;;;5098041;28;20046;-74
2024/01/10 09:01:18;;;;;;;11.67;5.97;;;0.90;47.50;;;;;;5095426;28;20436;-75
2024/01/10 09:03:45;;;;;;;12.73;6.43;;;1.00;47.40;;;;;;5097122;28;20042;-73
2024/01/10 09:06:11;;;;;;;12.57;6.17;;;1.10;47.30;;;;;;5079114;28;20032;-76
2024/01/10 09:08:37;;;;;;;15.33;6.73;;;1.10;47.10;;;;;;5096555;28;20035;-75
2024/01/10 09:11:03;;;;;;;14.23;7.07;;;1.30;47.00;;;;;;5101183;28;20027;-75
2024/01/10 09:13:29;;;;;;;13.50;6.60;;;1.30;46.90;;;;;;5108902;28;20036;-75
2024/01/10 09:15:55;;;;;;;12.73;5.80;;;1.30;46.80;;;;;;5097064;28;20039;-75
2024/01/10 09:18:21;;;;;;;14.60;6.83;;;1.30;46.80;;;;;;5094318;28;20032;-73
2024/01/10 09:20:47;;;;;;;14.53;7.00;;;1.30;46.80;;;;;;5075795;28;20023;-75
2024/01/10 09:23:14;;;;;;;14.17;6.60;;;1.40;46.70;;;;;;5099758;28;20317;-75
2024/01/10 09:25:40;;;;;;;15.17;7.17;;;1.50;46.50;;;;;;5096986;28;20031;-74
2024/01/10 09:28:06;;;;;;;15.93;7.10;;;1.50;46.40;;;;;;5098396;28;20036;-75
2024/01/10 09:30:32;;;;;;;14.67;5.80;;;1.60;46.30;;;;;;5099272;28;20052;-74
2024/01/10 09:32:58;;;;;;;13.33;6.50;;;1.70;46.20;;;;;;5095676;28;20042;-76
2024/01/10 09:35:24;;;;;;;13.27;6.60;;;1.70;46.00;;;;;;5098346;28;20042;-75
2024/01/10 09:37:50;;;;;;;11.83;5.63;;;1.70;45.90;;;;;;5103048;28;20028;-75
2024/01/10 09:40:17;;;;;;;12.23;6.33;;;1.80;45.90;;;;;;5110801;28;20027;-76
2024/01/10 09:42:51;;;;;;;13.83;7.17;;;1.80;45.80;;;;;;5096639;28;20103;-75
2024/01/10 09:45:18;;;;;;;12.70;6.10;;;1.90;45.70;;;;;;5116493;28;20024;-75
2024/01/10 09:47:49;;;;;;;12.67;6.27;;;1.90;45.60;;;;;;5094481;28;20038;-76
2024/01/10 09:50:15;;;;;;;17.00;6.83;;;2.00;45.50;;;;;;5111055;27;20024;-75
2024/01/10 09:52:53;;;;;;;13.83;6.27;;;2.00;45.40;;;;;;5095335;28;20085;-74
2024/01/10 09:55:25;;;;;;;14.60;7.30;;;2.00;45.30;;;;;;5095257;28;20036;-74
2024/01/10 09:57:52;;;;;;;15.50;7.43;;;2.00;45.30;;;;;;5096004;28;20104;-75
2024/01/10 10:00:18;;;;;;;14.27;7.13;;;1.90;45.20;;;;;;5094781;28;20023;-74
2024/01/10 10:02:47;;;;;;;12.40;6.77;;;1.90;45.10;;;;;;5096300;28;20056;-74
2024/01/10 10:05:15;;;;;;;12.63;6.20;;;1.90;45.00;;;;;;5094964;28;20027;-75
2024/01/10 10:07:45;;;;;;;13.20;6.73;;;1.90;45.10;;;;;;5080715;28;20051;-75
2024/01/10 10:10:12;;;;;;;13.70;6.57;;;2.00;44.90;;;;;;5094632;28;20119;-74
2024/01/10 10:12:48;;;;;;;12.80;6.50;;;2.10;44.90;;;;;;5095213;28;20031;-75
2024/01/10 10:15:16;;;;;;;13.73;6.67;;;2.30;45.30;;;;;;5096578;28;20106;-74
2024/01/10 10:17:47;;;;;;;14.43;7.43;;;2.50;44.40;;;;;;5090075;28;20054;-75
2024/01/10 10:20:14;;;;;;;;;;;2.70;44.10;;;;;;5094991;28;20020;-75
2024/01/10 10:22:42;;;;;;;12.33;6.23;;;2.90;44.00;;;;;;5094604;28;19939;-74
2024/01/10 10:25:09;;;;;;;14.70;6.73;;;3.10;43.80;;;;;;5095035;28;20024;-74
2024/01/10 10:27:36;;;;;;;14.00;6.53;;;3.30;43.50;;;;;;5094941;28;20111;-75
2024/01/10 10:30:03;;;;;;;13.63;6.93;;;3.50;43.10;;;;;;5093261;28;20055;-76
2024/01/10 10:32:30;;;;;;;15.87;7.67;;;3.60;42.90;;;;;;5110355;28;20040;-75
2024/01/10 10:34:56;;;;;;;16.27;8.20;;;3.70;42.60;;;;;;5084599;28;20063;-76
2024/01/10 10:37:22;;;;;;;14.37;7.20;;;3.80;42.50;;;;;;5095793;28;20033;-76
2024/01/10 10:39:48;;;;;;;15.77;8.33;;;3.90;42.40;;;;;;5095541;28;20436;-75
2024/01/10 10:42:15;;;;;;;13.97;6.93;;;4.00;42.20;;;;;;5096101;28;20016;-74
2024/01/10 10:44:44;;;;;;;14.07;7.40;;;4.00;42.10;;;;;;5097181;28;20039;-74
2024/01/10 10:47:11;;;;;;;15.73;7.37;;;4.10;42.00;;;;;;5088052;28;20024;-76
2024/01/10 10:49:51;;;;;;;14.10;6.73;;;4.10;41.80;;;;;;5094648;28;20028;-76
2024/01/10 10:52:19;;;;;;;15.97;7.60;;;4.20;41.70;;;;;;5095407;28;20107;-74
2024/01/10 10:54:47;;;;;;;14.13;6.17;;;4.20;41.60;;;;;;5092043;28;20036;-76
2024/01/10 10:57:15;;;;;;;14.03;7.17;;;4.20;41.50;;;;;;5095507;28;20016;-76
2024/01/10 10:59:42;;;;;;;16.00;7.30;;;4.30;41.50;;;;;;5095403;28;20457;-77
2024/01/10 11:02:10;;;;;;;13.63;6.57;;;4.40;41.40;;;;;;5095309;28;20099;-75
2024/01/10 11:04:37;;;;;;;14.63;7.03;;;4.40;41.30;;;;;;5093922;28;20024;-76
2024/01/10 11:07:03;;;;;;;15.37;6.97;;;4.40;41.20;;;;;;5095382;28;20071;-77
2024/01/10 11:09:30;;;;;;;12.77;6.90;;;4.40;41.10;;;;;;5095207;28;20031;-75
2024/01/10 11:12:04;;;;;;;15.43;7.00;;;4.50;41.10;;;;;;5095718;28;20353;-75
2024/01/10 11:14:43;;;;;;;14.93;6.93;;;4.50;40.90;;;;;;5089199;28;20080;-76
2024/01/10 11:17:18;;;;;;;13.00;6.57;;;4.50;40.90;;;;;;5094364;28;20027;-75
2024/01/10 11:20:03;;;;;;;13.40;6.00;;;4.50;40.90;;;;;;5095040;28;20025;-77
2024/01/10 11:22:32;;;;;;;14.10;7.17;;;4.50;40.90;;;;;;5094928;28;20039;-75
2024/01/10 11:24:58;;;;;;;14.07;6.37;;;4.50;41.00;;;;;;5093222;28;20032;-75
2024/01/10 11:27:26;;;;;;;14.70;6.67;;;4.40;40.80;;;;;;5093451;28;20065;-75
2024/01/10 11:29:52;;;;;;;12.67;6.93;;;4.40;40.90;;;;;;5091743;28;20036;-75
2024/01/10 11:32:25;;;;;;;13.83;7.00;;;4.30;40.90;;;;;;5093270;28;20081;-73
2024/01/10 11:34:55;;;;;;;12.43;5.93;;;4.30;40.70;;;;;;5091296;28;20028;-74
2024/01/10 11:37:21;;;;;;;13.93;6.53;;;4.20;40.80;;;;;;5094461;28;20099;-75
2024/01/10 11:39:47;;;;;;;15.53;6.90;;;4.20;40.70;;;;;;5075408;28;20112;-75
2024/01/10 11:42:40;;;;;;;24.73;8.70;;;4.10;40.70;;;;;;5094140;28;20048;-74
2024/01/10 11:45:06;;;;;;;15.60;6.80;;;4.10;40.70;;;;;;5100771;28;20418;-75
2024/01/10 11:47:32;;;;;;;16.00;7.67;;;4.00;40.80;;;;;;5096199;28;20023;-77
2024/01/10 11:50:01;;;;;;;16.80;7.03;;;3.90;40.70;;;;;;5076484;28;20032;-72
2024/01/10 11:52:34;;;;;;;18.33;7.17;;;3.90;40.70;;;;;;5093974;28;20097;-70
2024/01/10 11:55:00;;;;;;;14.20;6.57;;;3.90;40.80;;;;;;5091908;28;20031;-71
2024/01/10 11:57:28;;;;;;;13.10;6.37;;;3.80;40.70;;;;;;5093027;28;20024;-70
2024/01/10 12:00:00;;;;;;;14.53;6.70;;;3.80;40.70;;;;;;5093829;28;20024;-71
2024/01/10 12:02:26;;;;;;;;;;;3.70;40.60;;;;;;5092083;28;20024;-72
2024/01/10 12:04:53;;;;;;;11.33;5.70;;;3.70;40.80;;;;;;5092081;28;19943;-72
2024/01/10 12:07:19;;;;;;;14.13;7.13;;;3.60;40.90;;;;;;5094130;28;20356;-72
2024/01/10 12:09:46;;;;;;;11.03;5.30;;;3.60;41.40;;;;;;5092816;28;20024;-70
2024/01/10 12:12:15;;;;;;;13.93;6.90;;;3.50;40.70;;;;;;5092843;28;20024;-71
2024/01/10 12:14:44;;;;;;;13.67;7.40;;;3.50;40.70;;;;;;5079462;28;20024;-72
2024/01/10 12:17:09;;;;;;;13.60;7.03;;;3.50;40.80;;;;;;5092151;28;20031;-70
2024/01/10 12:19:37;;;;;;;13.57;6.80;;;3.40;40.70;;;;;;5092258;28;20024;-71
2024/01/10 12:22:05;;;;;;;12.80;6.10;;;3.40;40.60;;;;;;5092520;28;20031;-72
2024/01/10 12:24:31;;;;;;;14.00;6.77;;;3.40;40.70;;;;;;5091951;28;20031;-71
2024/01/10 12:26:58;;;;;;;13.13;5.83;;;3.40;40.70;;;;;;5094347;28;20518;-71
2024/01/10 12:29:25;;;;;;;14.40;7.43;;;3.40;40.60;;;;;;5107824;28;20032;-70
2024/01/10 12:31:51;;;;;;;14.73;7.03;;;3.40;40.50;;;;;;5092126;28;20509;-71
2024/01/10 12:34:17;;;;;;;14.93;7.27;;;3.40;40.50;;;;;;5090683;28;20368;-72
2024/01/10 12:36:44;;;;;;;13.37;6.60;;;3.40;40.60;;;;;;5093081;28;20077;-70
2024/01/10 12:39:11;;;;;;;13.37;6.43;;;3.40;40.60;;;;;;5091818;28;20356;-72
2024/01/10 12:41:37;;;;;;;12.73;5.83;;;3.40;40.60;;;;;;5079972;28;20414;-72
2024/01/10 12:44:04;;;;;;;13.53;7.10;;;3.40;40.70;;;;;;5093607;28;20433;-73
2024/01/10 12:46:31;;;;;;;17.03;6.53;;;3.40;40.70;;;;;;5093100;28;20134;-73
2024/01/10 12:49:02;;;;;;;14.30;6.60;;;3.40;40.60;;;;;;5091077;28;20028;-74